createdAt,value
2019-04-03T00:01:36.876Z,10.32
2019-04-03T00:04:07.400Z,10.31
2019-04-03T00:06:37.915Z,10.22
2019-04-03T00:09:09.389Z,10.17
2019-04-03T00:11:40.383Z,10.15
2019-04-03T00:14:12.884Z,10.13
2019-04-03T00:16:45.134Z,10.08
2019-04-03T00:19:15.891Z,10.10
2019-04-03T00:21:50.179Z,10.08
2019-04-03T00:24:22.146Z,10.09
2019-04-03T00:26:52.938Z,10.10
2019-04-03T00:29:23.454Z,10.11
2019-04-03T00:31:54.048Z,10.12
2019-04-03T00:34:24.576Z,10.03
2019-04-03T00:36:55.055Z,10.00
2019-04-03T00:39:25.637Z,10.03
2019-04-03T00:41:56.116Z,10.02
2019-04-03T00:44:26.694Z,10.01
2019-04-03T00:46:57.199Z,10.09
2019-04-03T00:49:27.770Z,10.09
2019-04-03T00:51:58.283Z,10.00
2019-04-03T00:54:30.902Z,9.92
2019-04-03T00:57:01.322Z,9.93
2019-04-03T00:59:31.858Z,9.82
2019-04-03T01:02:02.299Z,9.80
2019-04-03T01:04:34.030Z,9.78
2019-04-03T01:07:04.580Z,9.71
2019-04-03T01:09:35.125Z,9.66
2019-04-03T01:12:05.630Z,9.54
2019-04-03T01:14:36.193Z,9.48
2019-04-03T01:17:06.807Z,9.44
2019-04-03T01:19:37.241Z,9.42
2019-04-03T01:22:08.092Z,9.37
2019-04-03T01:24:39.046Z,9.34
2019-04-03T01:27:11.105Z,9.29
2019-04-03T01:29:42.917Z,9.30
2019-04-03T01:32:15.129Z,9.24
2019-04-03T01:34:47.685Z,9.18
2019-04-03T01:37:19.174Z,9.15
2019-04-03T01:39:50.833Z,9.22
2019-04-03T01:42:22.498Z,9.10
2019-04-03T01:44:55.130Z,9.01
2019-04-03T01:47:27.515Z,8.90
2019-04-03T01:49:58.523Z,8.89
2019-04-03T01:52:31.045Z,8.91
2019-04-03T01:55:20.994Z,8.94
2019-04-03T01:57:51.749Z,9.00
2019-04-03T02:00:22.205Z,9.11
2019-04-03T02:02:52.722Z,9.17
2019-04-03T02:05:23.204Z,9.23
2019-04-03T02:07:53.801Z,9.21
2019-04-03T02:10:25.269Z,9.22
2019-04-03T02:12:55.733Z,9.31
2019-04-03T02:15:26.287Z,9.29
2019-04-03T02:17:56.809Z,9.30
2019-04-03T02:20:27.302Z,9.26
2019-04-03T02:22:59.613Z,9.24
2019-04-03T02:25:32.127Z,9.27
2019-04-03T02:28:03.838Z,9.24
2019-04-03T02:30:34.455Z,9.16
2019-04-03T02:33:04.947Z,9.18
2019-04-03T02:35:38.946Z,9.15
2019-04-03T02:38:08.029Z,9.02
2019-04-03T02:40:38.615Z,8.95
2019-04-03T02:43:09.260Z,8.89
2019-04-03T02:45:39.786Z,8.89
2019-04-03T02:48:10.255Z,8.87
2019-04-03T02:50:41.108Z,8.81
2019-04-03T02:53:11.691Z,8.77
2019-04-03T02:55:42.236Z,8.72
2019-04-03T02:58:12.737Z,8.67
2019-04-03T03:00:43.539Z,8.70
2019-04-03T03:03:17.240Z,8.55
2019-04-03T03:05:46.308Z,8.52
2019-04-03T03:08:17.590Z,8.53
2019-04-03T03:10:51.724Z,8.58
2019-04-03T03:13:22.756Z,8.59
2019-04-03T03:15:53.760Z,8.54
2019-04-03T03:18:27.192Z,8.55
2019-04-03T03:20:58.936Z,8.43
2019-04-03T03:23:29.692Z,8.33
2019-04-03T03:26:00.282Z,8.27
2019-04-03T03:28:31.125Z,8.21
2019-04-03T03:31:04.931Z,8.15
2019-04-03T03:33:37.901Z,8.24
2019-04-03T03:36:08.381Z,8.23
2019-04-03T03:38:40.822Z,8.23
2019-04-03T03:41:11.597Z,8.28
2019-04-03T03:43:42.474Z,8.33
2019-04-03T03:46:13.410Z,8.35
2019-04-03T03:48:45.658Z,8.33
2019-04-03T03:51:17.567Z,8.25
2019-04-03T03:53:49.852Z,8.10
2019-04-03T03:56:21.585Z,8.04
2019-04-03T03:58:52.387Z,7.94
2019-04-03T04:01:23.202Z,7.85
2019-04-03T04:03:53.865Z,7.84
2019-04-03T04:06:27.914Z,7.75
2019-04-03T04:08:56.940Z,7.73
2019-04-03T04:11:30.837Z,7.64
2019-04-03T04:14:00.489Z,7.74
2019-04-03T04:16:31.101Z,7.74
2019-04-03T04:19:01.597Z,7.73
2019-04-03T04:21:32.566Z,7.78
2019-04-03T04:24:03.115Z,7.86
2019-04-03T04:26:33.883Z,7.95
2019-04-03T04:29:04.545Z,8.01
2019-04-03T04:31:35.067Z,8.07
2019-04-03T04:34:05.612Z,8.09
2019-04-03T04:36:36.063Z,8.06
2019-04-03T04:39:08.988Z,8.08
2019-04-03T04:41:39.460Z,7.98
2019-04-03T04:44:10.438Z,7.78
2019-04-03T04:46:43.607Z,7.72
2019-04-03T04:49:13.377Z,7.67
2019-04-03T04:51:43.870Z,7.70
2019-04-03T04:54:14.374Z,7.70
2019-04-03T04:56:44.943Z,7.73
2019-04-03T04:59:15.397Z,7.76
2019-04-03T05:01:47.037Z,7.75
2019-04-03T05:04:18.136Z,7.75
2019-04-03T05:06:48.614Z,7.66
2019-04-03T05:09:19.081Z,7.68
2019-04-03T05:11:49.595Z,7.64
2019-04-03T05:14:20.052Z,7.58
2019-04-03T05:16:50.552Z,7.54
2019-04-03T05:19:21.250Z,7.45
2019-04-03T05:21:53.073Z,7.43
2019-04-03T05:24:23.876Z,7.38
2019-04-03T05:26:54.403Z,7.38
2019-04-03T05:29:25.078Z,7.36
2019-04-03T05:31:55.669Z,7.40
2019-04-03T05:34:26.165Z,7.45
2019-04-03T05:36:56.575Z,7.45
2019-04-03T05:39:27.069Z,7.49
2019-04-03T05:41:59.312Z,7.55
2019-04-03T05:44:32.839Z,7.60
2019-04-03T05:47:02.279Z,7.65
2019-04-03T05:49:32.894Z,7.67
2019-04-03T05:52:04.139Z,7.73
2019-04-03T05:54:35.154Z,7.80
2019-04-03T05:57:24.750Z,7.89
2019-04-03T06:00:00.805Z,7.95
2019-04-03T06:02:27.423Z,8.06
2019-04-03T06:04:57.941Z,8.15
2019-04-03T06:07:28.472Z,8.26
2019-04-03T06:09:59.295Z,8.34
2019-04-03T06:12:30.032Z,8.38
2019-04-03T06:15:00.527Z,8.45
2019-04-03T06:17:31.042Z,8.52
2019-04-03T06:20:01.397Z,8.59
2019-04-03T06:22:31.877Z,8.64
2019-04-03T06:25:02.400Z,8.69
2019-04-03T06:27:33.093Z,8.79
2019-04-03T06:30:03.519Z,8.86
2019-04-03T06:32:34.001Z,8.86
2019-04-03T06:35:04.664Z,8.91
2019-04-03T06:37:35.178Z,9.02
2019-04-03T06:40:06.670Z,9.11
2019-04-03T06:42:37.158Z,9.20
2019-04-03T06:45:08.218Z,9.24
2019-04-03T06:47:38.676Z,9.27
2019-04-03T06:50:12.212Z,9.48
2019-04-03T06:52:41.447Z,9.46
2019-04-03T06:55:11.820Z,9.53
2019-04-03T06:57:42.368Z,9.57
2019-04-03T07:00:13.707Z,9.62
2019-04-03T07:02:44.178Z,9.77
2019-04-03T07:05:14.646Z,9.87
2019-04-03T07:07:45.132Z,10.01
2019-04-03T07:10:25.080Z,10.07
2019-04-03T07:12:48.572Z,10.09
2019-04-03T07:15:19.117Z,10.20
2019-04-03T07:17:49.516Z,10.33
2019-04-03T07:20:20.845Z,10.45
2019-04-03T07:22:51.628Z,10.54
2019-04-03T07:25:22.128Z,10.65
2019-04-03T07:27:52.908Z,10.66
2019-04-03T07:30:23.440Z,10.75
2019-04-03T07:32:57.134Z,10.65
2019-04-03T07:35:26.083Z,10.82
2019-04-03T07:37:56.882Z,10.65
2019-04-03T07:40:27.578Z,10.69
2019-04-03T07:42:58.601Z,10.84
2019-04-03T07:45:29.165Z,10.72
2019-04-03T07:47:59.624Z,10.73
2019-04-03T07:50:30.123Z,10.85
2019-04-03T07:53:00.644Z,10.85
2019-04-03T07:55:31.259Z,10.95
2019-04-03T07:58:01.705Z,10.95
2019-04-03T08:00:32.228Z,10.93
2019-04-03T08:03:02.774Z,11.02
2019-04-03T08:05:33.267Z,11.10
2019-04-03T08:08:03.808Z,11.20
2019-04-03T08:10:37.514Z,11.25
2019-04-03T08:13:07.580Z,11.30
2019-04-03T08:15:38.240Z,11.43
2019-04-03T08:18:08.708Z,11.43
2019-04-03T08:20:39.383Z,11.49
2019-04-03T08:23:09.883Z,11.48
2019-04-03T08:25:42.691Z,11.56
2019-04-03T08:28:12.517Z,11.28
2019-04-03T08:30:43.493Z,11.56
2019-04-03T08:33:17.921Z,11.69
2019-04-03T08:35:46.509Z,11.76
2019-04-03T08:38:17.129Z,11.74
2019-04-03T08:40:47.651Z,11.88
2019-04-03T08:43:18.160Z,11.68
2019-04-03T08:45:48.667Z,11.85
2019-04-03T08:48:19.149Z,11.96
2019-04-03T08:50:49.829Z,12.09
2019-04-03T08:53:20.343Z,12.07
2019-04-03T08:55:50.911Z,12.14
2019-04-03T08:58:22.105Z,12.13
2019-04-03T09:00:53.764Z,12.34
2019-04-03T09:03:24.571Z,12.62
2019-04-03T09:05:55.871Z,12.55
2019-04-03T09:08:27.126Z,12.47
2019-04-03T09:10:57.814Z,12.64
2019-04-03T09:13:28.290Z,12.89
2019-04-03T09:16:00.247Z,12.79
2019-04-03T09:18:31.011Z,12.59
2019-04-03T09:21:01.591Z,12.55
2019-04-03T09:23:32.152Z,12.41
2019-04-03T09:26:03.796Z,12.61
2019-04-03T09:28:34.370Z,12.83
2019-04-03T09:31:04.920Z,12.72
2019-04-03T09:33:35.547Z,12.62
2019-04-03T09:36:06.411Z,12.66
2019-04-03T09:38:37.515Z,12.56
2019-04-03T09:41:08.130Z,12.53
2019-04-03T09:43:40.011Z,12.53
2019-04-03T09:46:10.645Z,12.29
2019-04-03T09:48:41.297Z,12.13
2019-04-03T09:51:11.878Z,12.00
2019-04-03T09:53:42.457Z,11.71
2019-04-03T09:56:13.163Z,11.55
2019-04-03T09:58:43.695Z,11.31
2019-04-03T10:01:17.770Z,11.24
2019-04-03T10:03:46.480Z,11.08
2019-04-03T10:06:17.609Z,11.01
2019-04-03T10:08:48.215Z,10.97
2019-04-03T10:11:20.149Z,10.90
2019-04-03T10:13:51.347Z,10.67
2019-04-03T10:16:21.965Z,10.59
2019-04-03T10:18:52.688Z,10.45
2019-04-03T10:21:23.643Z,10.36
2019-04-03T10:23:54.557Z,10.40
2019-04-03T10:26:25.012Z,10.52
2019-04-03T10:28:55.904Z,10.57
2019-04-03T10:31:26.600Z,10.44
2019-04-03T10:33:57.303Z,10.57
2019-04-03T10:36:28.564Z,10.36
2019-04-03T10:38:59.286Z,10.36
2019-04-03T10:41:29.948Z,10.38
2019-04-03T10:44:00.474Z,10.44
2019-04-03T10:46:31.061Z,10.40
2019-04-03T10:49:02.184Z,10.36
2019-04-03T10:51:32.905Z,10.32
2019-04-03T10:54:03.464Z,10.42
2019-04-03T10:56:34.053Z,10.28
2019-04-03T10:59:11.537Z,10.32
2019-04-03T11:01:37.105Z,10.34
2019-04-03T11:04:07.703Z,10.39
2019-04-03T11:06:38.270Z,10.47
2019-04-03T11:09:10.482Z,10.49
2019-04-03T11:11:43.045Z,10.48
2019-04-03T11:14:14.307Z,10.58
2019-04-03T11:16:46.537Z,10.56
2019-04-03T11:19:19.554Z,10.50
2019-04-03T11:21:50.029Z,10.61
2019-04-03T11:24:21.239Z,10.73
2019-04-03T11:26:52.563Z,10.68
2019-04-03T11:29:23.945Z,10.70
2019-04-03T11:31:54.811Z,10.63
2019-04-03T11:34:25.815Z,10.63
2019-04-03T11:37:00.003Z,10.63
2019-04-03T11:39:29.175Z,10.62
2019-04-03T11:42:00.061Z,10.63
2019-04-03T11:44:30.769Z,10.71
2019-04-03T11:47:01.376Z,10.77
2019-04-03T11:49:32.166Z,10.82
2019-04-03T11:52:02.906Z,10.94
2019-04-03T11:54:33.429Z,10.84
2019-04-03T11:57:04.320Z,10.87
2019-04-03T11:59:34.883Z,10.97
2019-04-03T12:02:07.529Z,10.94
2019-04-03T12:04:38.162Z,10.98
2019-04-03T12:07:12.044Z,11.13
2019-04-03T12:09:43.384Z,11.19
2019-04-03T12:12:14.463Z,11.08
2019-04-03T12:14:45.087Z,10.82
2019-04-03T12:17:15.729Z,10.76
2019-04-03T12:19:46.658Z,10.86
2019-04-03T12:22:17.436Z,10.86
2019-04-03T12:24:48.558Z,10.96
2019-04-03T12:27:19.046Z,10.99
2019-04-03T12:29:49.903Z,10.81
2019-04-03T12:32:37.877Z,10.85
2019-04-03T12:35:04.631Z,10.87
2019-04-03T12:37:35.155Z,10.84
2019-04-03T12:40:07.263Z,10.75
2019-04-03T12:42:38.021Z,10.81
2019-04-03T12:45:10.896Z,10.79
2019-04-03T12:47:44.486Z,10.79
2019-04-03T12:50:15.326Z,10.78
2019-04-03T12:52:46.027Z,10.67
2019-04-03T12:55:16.752Z,10.69
2019-04-03T12:57:47.399Z,10.88
2019-04-03T13:00:19.360Z,11.00
2019-04-03T13:02:50.098Z,10.86
2019-04-03T13:05:22.269Z,11.07
2019-04-03T13:07:52.769Z,11.31
2019-04-03T13:10:23.723Z,11.33
2019-04-03T13:12:56.739Z,11.46
2019-04-03T13:15:28.455Z,11.42
2019-04-03T13:18:00.028Z,11.40
2019-04-03T13:20:30.659Z,11.66
2019-04-03T13:23:01.178Z,11.82
2019-04-03T13:25:31.795Z,12.01
2019-04-03T13:28:04.011Z,12.41
2019-04-03T13:30:34.781Z,12.91
2019-04-03T13:33:07.212Z,14.01
2019-04-03T13:35:37.785Z,14.90
2019-04-03T13:38:08.487Z,16.00
2019-04-03T13:40:39.263Z,16.61
2019-04-03T13:43:09.769Z,17.04
2019-04-03T13:45:40.365Z,17.05
2019-04-03T13:48:13.459Z,17.63
2019-04-03T13:50:45.484Z,15.80
2019-04-03T13:53:15.975Z,15.35
2019-04-03T13:55:46.707Z,14.62
2019-04-03T13:58:17.237Z,13.98
2019-04-03T14:00:59.029Z,13.53
2019-04-03T14:03:20.138Z,13.26
2019-04-03T14:05:50.647Z,13.06
2019-04-03T14:08:21.353Z,12.73
2019-04-03T14:10:51.962Z,12.62
2019-04-03T14:13:22.844Z,12.71
2019-04-03T14:15:56.037Z,12.64
2019-04-03T14:18:26.048Z,12.56
2019-04-03T14:20:57.119Z,12.51
2019-04-03T14:23:27.781Z,12.43
2019-04-03T14:26:05.230Z,12.43
2019-04-03T14:28:33.364Z,12.39
2019-04-03T14:31:05.026Z,12.32
2019-04-03T14:33:43.515Z,12.30
2019-04-03T14:36:07.623Z,12.27
2019-04-03T14:38:38.106Z,12.13
2019-04-03T14:41:08.793Z,12.25
2019-04-03T14:43:39.456Z,12.22
2019-04-03T14:46:09.981Z,12.22
2019-04-03T14:48:40.515Z,12.22
2019-04-03T14:51:12.218Z,12.15
2019-04-03T14:53:42.862Z,12.13
2019-04-03T14:56:13.782Z,12.18
2019-04-03T14:58:44.383Z,12.41
2019-04-03T15:01:14.922Z,12.49
2019-04-03T15:03:45.678Z,12.33
2019-04-03T15:06:19.038Z,12.26
2019-04-03T15:08:49.624Z,12.38
2019-04-03T15:11:21.819Z,12.26
2019-04-03T15:13:52.940Z,12.27
2019-04-03T15:16:23.502Z,12.26
2019-04-03T15:18:53.931Z,12.22
2019-04-03T15:21:25.226Z,12.28
2019-04-03T15:23:55.880Z,12.24
2019-04-03T15:26:26.293Z,12.40
2019-04-03T15:28:56.937Z,12.50
2019-04-03T15:31:27.608Z,12.74
2019-04-03T15:33:58.261Z,12.69
2019-04-03T15:36:28.960Z,12.73
2019-04-03T15:38:59.915Z,12.97
2019-04-03T15:41:33.323Z,13.21
2019-04-03T15:44:02.892Z,13.33
2019-04-03T15:46:34.295Z,13.78
2019-04-03T15:49:05.316Z,14.28
2019-04-03T15:51:38.178Z,15.71
2019-04-03T15:54:08.162Z,17.31
2019-04-03T15:56:38.627Z,17.88
2019-04-03T15:59:10.901Z,17.49
2019-04-03T16:01:41.444Z,17.74
2019-04-03T16:04:11.923Z,18.50
2019-04-03T16:06:42.815Z,18.20
2019-04-03T16:09:13.473Z,18.79
2019-04-03T16:11:43.986Z,18.89
2019-04-03T16:14:14.680Z,18.89
2019-04-03T16:16:45.178Z,19.10
2019-04-03T16:19:15.670Z,19.28
2019-04-03T16:21:46.268Z,18.42
2019-04-03T16:24:16.859Z,18.43
2019-04-03T16:26:47.390Z,18.44
2019-04-03T16:29:17.961Z,19.18
2019-04-03T16:31:48.458Z,18.79
2019-04-03T16:34:21.958Z,18.08
2019-04-03T16:36:52.975Z,17.43
2019-04-03T16:39:23.626Z,17.03
2019-04-03T16:41:54.109Z,16.90
2019-04-03T16:44:26.267Z,16.50
2019-04-03T16:46:57.027Z,15.70
2019-04-03T16:49:28.663Z,15.23
2019-04-03T16:51:59.475Z,15.18
2019-04-03T16:54:31.902Z,14.72
2019-04-03T16:57:03.608Z,14.45
2019-04-03T16:59:36.110Z,14.16
2019-04-03T17:02:06.737Z,13.92
2019-04-03T17:04:37.666Z,13.69
2019-04-03T17:07:09.723Z,13.49
2019-04-03T17:09:40.950Z,13.13
2019-04-03T17:12:11.481Z,12.88
2019-04-03T17:14:42.005Z,12.87
2019-04-03T17:17:14.367Z,12.72
2019-04-03T17:20:03.847Z,12.68
2019-04-03T17:22:34.409Z,12.49
2019-04-03T17:25:05.139Z,12.32
2019-04-03T17:27:36.044Z,12.33
2019-04-03T17:30:08.078Z,12.29
2019-04-03T17:32:38.776Z,12.32
2019-04-03T17:35:09.943Z,11.99
2019-04-03T17:37:40.505Z,11.73
2019-04-03T17:40:12.615Z,11.64
2019-04-03T17:42:43.207Z,11.40
2019-04-03T17:45:16.214Z,11.25
2019-04-03T17:47:49.374Z,11.06
2019-04-03T17:50:19.002Z,10.99
2019-04-03T17:52:49.510Z,10.90
2019-04-03T17:55:19.959Z,10.73
2019-04-03T17:57:50.489Z,10.58
2019-04-03T18:00:23.110Z,10.46
2019-04-03T18:02:53.596Z,10.36
2019-04-03T18:05:25.621Z,10.29
2019-04-03T18:07:58.645Z,10.23
2019-04-03T18:10:28.646Z,10.12
2019-04-03T18:12:59.137Z,10.04
2019-04-03T18:15:29.609Z,9.98
2019-04-03T18:18:00.998Z,9.94
2019-04-03T18:20:32.388Z,9.93
2019-04-03T18:23:02.924Z,9.93
2019-04-03T18:25:33.483Z,9.92
2019-04-03T18:28:05.436Z,9.92
2019-04-03T18:30:36.078Z,10.01
2019-04-03T18:33:06.645Z,10.07
2019-04-03T18:35:37.142Z,10.03
2019-04-03T18:38:08.554Z,10.01
2019-04-03T18:40:39.190Z,10.05
2019-04-03T18:43:09.750Z,10.00
2019-04-03T18:45:40.217Z,9.94
2019-04-03T18:48:10.885Z,9.97
2019-04-03T18:50:41.393Z,9.86
2019-04-03T18:53:11.925Z,9.85
2019-04-03T18:55:44.631Z,9.78
2019-04-03T18:58:14.636Z,9.72
2019-04-03T19:00:45.167Z,9.70
2019-04-03T19:03:15.689Z,9.63
2019-04-03T19:05:46.290Z,9.58
2019-04-03T19:08:18.110Z,9.52
2019-04-03T19:11:01.316Z,9.47
2019-04-03T19:13:21.302Z,9.44
2019-04-03T19:15:51.808Z,9.41
2019-04-03T19:18:22.354Z,9.43
2019-04-03T19:20:52.885Z,9.50
2019-04-03T19:23:23.452Z,9.49
2019-04-03T19:25:53.974Z,9.44
2019-04-03T19:28:24.530Z,9.43
2019-04-03T19:31:04.173Z,9.46
2019-04-03T19:33:34.592Z,9.49
2019-04-03T19:36:05.179Z,9.58
2019-04-03T19:38:36.317Z,9.51
2019-04-03T19:41:06.851Z,9.40
2019-04-03T19:43:37.383Z,9.40
2019-04-03T19:46:08.007Z,9.41
2019-04-03T19:48:38.522Z,9.41
2019-04-03T19:51:09.012Z,9.46
2019-04-03T19:53:39.507Z,9.51
2019-04-03T19:56:10.002Z,9.39
2019-04-03T19:58:40.474Z,9.37
2019-04-03T20:01:10.990Z,9.39
2019-04-03T20:03:44.095Z,9.31
2019-04-03T20:06:13.820Z,9.24
2019-04-03T20:08:44.281Z,9.19
2019-04-03T20:11:14.732Z,9.13
2019-04-03T20:13:45.456Z,9.13
2019-04-03T20:16:15.930Z,9.07
2019-04-03T20:18:46.409Z,9.00
2019-04-03T20:21:16.853Z,8.98
2019-04-03T20:23:48.637Z,9.03
2019-04-03T20:26:19.105Z,8.97
2019-04-03T20:28:49.516Z,8.96
2019-04-03T20:31:20.057Z,8.98
2019-04-03T20:33:50.589Z,8.94
2019-04-03T20:36:21.039Z,8.96
2019-04-03T20:38:51.558Z,8.96
2019-04-03T20:41:22.068Z,8.85
2019-04-03T20:43:52.615Z,8.77
2019-04-03T20:46:23.957Z,8.80
2019-04-03T20:48:54.896Z,8.81
2019-04-03T20:51:25.393Z,8.89
2019-04-03T20:53:55.942Z,8.76
2019-04-03T20:56:27.117Z,8.78
2019-04-03T20:58:58.644Z,8.63
2019-04-03T21:01:29.141Z,8.73
2019-04-03T21:03:59.699Z,8.72
2019-04-03T21:06:30.213Z,8.63
2019-04-03T21:09:00.742Z,8.59
2019-04-03T21:11:32.636Z,8.64
2019-04-03T21:14:05.574Z,8.62
2019-04-03T21:16:35.824Z,8.62
2019-04-03T21:19:06.348Z,8.59
2019-04-03T21:21:36.841Z,8.48
2019-04-03T21:24:07.399Z,8.53
2019-04-03T21:26:57.362Z,8.44
2019-04-03T21:29:27.836Z,8.32
2019-04-03T21:31:58.449Z,8.33
2019-04-03T21:34:28.926Z,8.33
2019-04-03T21:36:59.513Z,8.28
2019-04-03T21:39:30.080Z,8.26
2019-04-03T21:42:00.645Z,8.23
2019-04-03T21:44:31.913Z,8.17
2019-04-03T21:47:03.031Z,8.21
2019-04-03T21:49:33.542Z,8.20
2019-04-03T21:52:04.203Z,8.21
2019-04-03T21:54:34.686Z,8.32
2019-04-03T21:57:06.764Z,8.15
2019-04-03T21:59:37.527Z,8.15
2019-04-03T22:02:08.003Z,8.14
2019-04-03T22:04:38.577Z,8.04
2019-04-03T22:07:09.126Z,7.90
2019-04-03T22:09:39.634Z,7.96
2019-04-03T22:12:10.464Z,7.85
2019-04-03T22:14:42.744Z,7.81
2019-04-03T22:17:13.189Z,7.77
2019-04-03T22:19:43.679Z,7.76
2019-04-03T22:22:14.267Z,7.78
2019-04-03T22:24:44.745Z,7.87
2019-04-03T22:27:15.273Z,7.91
2019-04-03T22:29:45.788Z,8.03
2019-04-03T22:32:16.312Z,7.99
2019-04-03T22:34:46.844Z,7.95
2019-04-03T22:37:17.425Z,8.02
2019-04-03T22:39:47.934Z,8.01
2019-04-03T22:42:18.454Z,7.92
2019-04-03T22:44:49.022Z,8.05
2019-04-03T22:47:19.519Z,8.10
2019-04-03T22:49:50.031Z,8.02
2019-04-03T22:52:20.654Z,7.98
2019-04-03T22:54:51.181Z,8.02
2019-04-03T22:57:21.685Z,7.93
2019-04-03T22:59:54.471Z,8.10
2019-04-03T23:02:24.348Z,8.05
2019-04-03T23:04:54.893Z,8.03
2019-04-03T23:07:25.383Z,7.97
2019-04-03T23:09:56.779Z,8.05
2019-04-03T23:12:27.675Z,8.12
2019-04-03T23:14:58.219Z,8.30
2019-04-03T23:17:28.724Z,8.22
2019-04-03T23:19:59.287Z,8.24
2019-04-03T23:22:29.847Z,8.20
2019-04-03T23:25:00.418Z,8.18
2019-04-03T23:27:32.787Z,8.25
2019-04-03T23:30:03.206Z,8.49
2019-04-03T23:32:33.751Z,8.54
2019-04-03T23:35:04.328Z,8.63
2019-04-03T23:37:34.777Z,8.73
2019-04-03T23:40:05.818Z,8.76
2019-04-03T23:42:37.836Z,8.85
2019-04-03T23:45:08.802Z,8.84
2019-04-03T23:47:39.291Z,8.84
2019-04-03T23:50:10.283Z,8.96
2019-04-03T23:52:40.802Z,9.09
2019-04-03T23:55:11.798Z,9.24
2019-04-03T23:57:42.309Z,9.37
